sensor_id;sensor_type;location;lat;lon;timestamp;P1;durP1;ratioP1;P2;durP2;ratioP2
22614;SDS011;11474;50.790;0.298;2023-03-01T00:01:49;27.70;;;19.92;;
22614;SDS011;11474;50.790;0.298;2023-03-01T00:04:15;23.87;;;17.53;;
22614;SDS011;11474;50.790;0.298;2023-03-01T00:06:44;29.00;;;18.77;;
22614;SDS011;11474;50.790;0.298;2023-03-01T00:09:13;24.90;;;17.63;;
22614;SDS011;11474;50.790;0.298;2023-03-01T00:11:39;27.27;;;19.10;;
22614;SDS011;11474;50.790;0.298;2023-03-01T00:14:06;27.48;;;18.52;;
22614;SDS011;11474;50.790;0.298;2023-03-01T00:16:39;27.02;;;19.13;;
22614;SDS011;11474;50.790;0.298;2023-03-01T00:19:06;27.85;;;19.75;;
22614;SDS011;11474;50.790;0.298;2023-03-01T00:21:33;29.98;;;20.25;;
22614;SDS011;11474;50.790;0.298;2023-03-01T00:24:00;30.10;;;19.70;;
22614;SDS011;11474;50.790;0.298;2023-03-01T00:26:26;33.10;;;20.40;;
22614;SDS011;11474;50.790;0.298;2023-03-01T00:28:53;30.00;;;21.08;;
22614;SDS011;11474;50.790;0.298;2023-03-01T00:31:23;33.35;;;22.33;;
22614;SDS011;11474;50.790;0.298;2023-03-01T00:33:56;31.85;;;21.13;;
22614;SDS011;11474;50.790;0.298;2023-03-01T00:36:22;29.90;;;21.47;;
22614;SDS011;11474;50.790;0.298;2023-03-01T00:38:49;32.90;;;21.42;;
22614;SDS011;11474;50.790;0.298;2023-03-01T00:41:16;32.35;;;22.42;;
22614;SDS011;11474;50.790;0.298;2023-03-01T00:43:43;33.70;;;23.52;;
22614;SDS011;11474;50.790;0.298;2023-03-01T00:46:11;30.77;;;22.65;;
22614;SDS011;11474;50.790;0.298;2023-03-01T00:48:37;34.45;;;22.23;;
22614;SDS011;11474;50.790;0.298;2023-03-01T00:51:07;34.83;;;23.33;;
22614;SDS011;11474;50.790;0.298;2023-03-01T00:53:33;35.72;;;23.50;;
22614;SDS011;11474;50.790;0.298;2023-03-01T00:56:00;33.08;;;22.83;;
22614;SDS011;11474;50.790;0.298;2023-03-01T00:58:26;36.85;;;23.85;;
22614;SDS011;11474;50.790;0.298;2023-03-01T01:00:52;35.17;;;23.42;;
22614;SDS011;11474;50.790;0.298;2023-03-01T01:03:18;32.83;;;23.50;;
22614;SDS011;11474;50.790;0.298;2023-03-01T01:05:44;34.53;;;23.75;;
22614;SDS011;11474;50.790;0.298;2023-03-01T01:08:11;34.78;;;24.83;;
22614;SDS011;11474;50.790;0.298;2023-03-01T01:10:37;35.80;;;25.38;;
22614;SDS011;11474;50.790;0.298;2023-03-01T01:13:03;38.77;;;26.60;;
22614;SDS011;11474;50.790;0.298;2023-03-01T01:15:32;37.70;;;25.93;;
22614;SDS011;11474;50.790;0.298;2023-03-01T01:17:58;38.40;;;26.63;;
22614;SDS011;11474;50.790;0.298;2023-03-01T01:20:25;37.83;;;26.30;;
22614;SDS011;11474;50.790;0.298;2023-03-01T01:22:51;38.45;;;26.45;;
22614;SDS011;11474;50.790;0.298;2023-03-01T01:25:17;41.17;;;27.80;;
22614;SDS011;11474;50.790;0.298;2023-03-01T01:27:44;40.28;;;27.20;;
22614;SDS011;11474;50.790;0.298;2023-03-01T01:30:10;39.20;;;28.02;;
22614;SDS011;11474;50.790;0.298;2023-03-01T01:32:36;43.97;;;29.08;;
22614;SDS011;11474;50.790;0.298;2023-03-01T01:35:02;40.10;;;28.23;;
22614;SDS011;11474;50.790;0.298;2023-03-01T01:37:28;43.83;;;28.90;;
22614;SDS011;11474;50.790;0.298;2023-03-01T01:39:58;43.38;;;29.52;;
22614;SDS011;11474;50.790;0.298;2023-03-01T01:42:24;47.63;;;31.75;;
22614;SDS011;11474;50.790;0.298;2023-03-01T01:45:23;45.92;;;31.05;;
22614;SDS011;11474;50.790;0.298;2023-03-01T01:47:39;43.10;;;30.27;;
22614;SDS011;11474;50.790;0.298;2023-03-01T01:50:08;43.40;;;31.00;;
22614;SDS011;11474;50.790;0.298;2023-03-01T01:52:35;47.72;;;31.77;;
22614;SDS011;11474;50.790;0.298;2023-03-01T01:55:05;48.63;;;30.30;;
22614;SDS011;11474;50.790;0.298;2023-03-01T01:57:35;42.38;;;29.70;;
22614;SDS011;11474;50.790;0.298;2023-03-01T02:00:08;41.83;;;29.33;;
22614;SDS011;11474;50.790;0.298;2023-03-01T02:02:34;44.10;;;31.15;;
22614;SDS011;11474;50.790;0.298;2023-03-01T02:05:03;44.35;;;30.25;;
22614;SDS011;11474;50.790;0.298;2023-03-01T02:07:35;41.05;;;28.73;;
22614;SDS011;11474;50.790;0.298;2023-03-01T02:10:02;39.88;;;27.67;;
22614;SDS011;11474;50.790;0.298;2023-03-01T02:12:28;42.20;;;27.77;;
22614;SDS011;11474;50.790;0.298;2023-03-01T02:14:55;37.97;;;27.73;;
22614;SDS011;11474;50.790;0.298;2023-03-01T02:17:21;39.45;;;28.38;;
22614;SDS011;11474;50.790;0.298;2023-03-01T02:22:27;41.38;;;28.65;;
22614;SDS011;11474;50.790;0.298;2023-03-01T02:27:24;39.80;;;28.38;;
22614;SDS011;11474;50.790;0.298;2023-03-01T02:29:51;37.70;;;27.25;;
22614;SDS011;11474;50.790;0.298;2023-03-01T02:32:18;42.17;;;29.30;;
22614;SDS011;11474;50.790;0.298;2023-03-01T02:34:51;38.07;;;28.03;;
22614;SDS011;11474;50.790;0.298;2023-03-01T02:37:17;38.92;;;27.92;;
22614;SDS011;11474;50.790;0.298;2023-03-01T02:39:51;38.73;;;27.40;;
22614;SDS011;11474;50.790;0.298;2023-03-01T02:42:21;38.40;;;27.83;;
22614;SDS011;11474;50.790;0.298;2023-03-01T02:44:48;41.67;;;27.30;;
22614;SDS011;11474;50.790;0.298;2023-03-01T02:47:15;36.33;;;27.13;;
22614;SDS011;11474;50.790;0.298;2023-03-01T02:49:41;41.25;;;28.92;;
22614;SDS011;11474;50.790;0.298;2023-03-01T02:54:40;40.00;;;28.60;;
22614;SDS011;11474;50.790;0.298;2023-03-01T02:57:07;41.78;;;29.70;;
22614;SDS011;11474;50.790;0.298;2023-03-01T02:59:34;38.90;;;29.03;;
22614;SDS011;11474;50.790;0.298;2023-03-01T03:02:04;42.20;;;28.60;;
22614;SDS011;11474;50.790;0.298;2023-03-01T03:04:30;35.73;;;27.07;;
22614;SDS011;11474;50.790;0.298;2023-03-01T03:06:57;38.78;;;28.08;;
22614;SDS011;11474;50.790;0.298;2023-03-01T03:09:23;41.92;;;29.25;;
22614;SDS011;11474;50.790;0.298;2023-03-01T03:11:49;42.55;;;28.73;;
22614;SDS011;11474;50.790;0.298;2023-03-01T03:14:15;40.97;;;30.52;;
22614;SDS011;11474;50.790;0.298;2023-03-01T03:16:43;40.77;;;27.93;;
22614;SDS011;11474;50.790;0.298;2023-03-01T03:19:09;40.88;;;28.33;;
22614;SDS011;11474;50.790;0.298;2023-03-01T03:21:35;40.67;;;27.92;;
22614;SDS011;11474;50.790;0.298;2023-03-01T03:24:02;42.20;;;29.35;;
22614;SDS011;11474;50.790;0.298;2023-03-01T03:26:28;43.03;;;29.20;;
22614;SDS011;11474;50.790;0.298;2023-03-01T03:28:54;42.10;;;30.00;;
22614;SDS011;11474;50.790;0.298;2023-03-01T03:31:21;43.08;;;30.20;;
22614;SDS011;11474;50.790;0.298;2023-03-01T03:33:47;43.05;;;30.65;;
22614;SDS011;11474;50.790;0.298;2023-03-01T03:36:17;44.42;;;31.85;;
22614;SDS011;11474;50.790;0.298;2023-03-01T03:38:43;44.73;;;31.83;;
22614;SDS011;11474;50.790;0.298;2023-03-01T03:41:10;49.17;;;33.03;;
22614;SDS011;11474;50.790;0.298;2023-03-01T03:43:37;48.73;;;32.33;;
22614;SDS011;11474;50.790;0.298;2023-03-01T03:46:04;45.72;;;33.33;;
22614;SDS011;11474;50.790;0.298;2023-03-01T03:48:31;47.25;;;33.25;;
22614;SDS011;11474;50.790;0.298;2023-03-01T03:50:57;46.88;;;32.88;;
22614;SDS011;11474;50.790;0.298;2023-03-01T03:53:24;46.63;;;32.50;;
22614;SDS011;11474;50.790;0.298;2023-03-01T03:55:50;48.47;;;32.95;;
22614;SDS011;11474;50.790;0.298;2023-03-01T03:58:17;46.53;;;33.23;;
22614;SDS011;11474;50.790;0.298;2023-03-01T04:00:45;46.47;;;32.38;;
22614;SDS011;11474;50.790;0.298;2023-03-01T04:03:12;48.35;;;34.20;;
22614;SDS011;11474;50.790;0.298;2023-03-01T04:05:38;47.70;;;33.53;;
22614;SDS011;11474;50.790;0.298;2023-03-01T04:08:05;47.97;;;32.85;;
22614;SDS011;11474;50.790;0.298;2023-03-01T04:13:01;50.88;;;34.97;;
22614;SDS011;11474;50.790;0.298;2023-03-01T04:15:27;51.63;;;34.33;;
22614;SDS011;11474;50.790;0.298;2023-03-01T04:17:53;51.22;;;34.97;;
22614;SDS011;11474;50.790;0.298;2023-03-01T04:20:24;48.78;;;33.85;;
22614;SDS011;11474;50.790;0.298;2023-03-01T04:22:58;52.50;;;34.65;;
22614;SDS011;11474;50.790;0.298;2023-03-01T04:25:24;48.95;;;34.83;;
22614;SDS011;11474;50.790;0.298;2023-03-01T04:27:50;52.05;;;35.08;;
22614;SDS011;11474;50.790;0.298;2023-03-01T04:30:16;49.28;;;33.53;;
22614;SDS011;11474;50.790;0.298;2023-03-01T04:32:42;49.27;;;34.07;;
22614;SDS011;11474;50.790;0.298;2023-03-01T04:35:09;50.70;;;34.85;;
22614;SDS011;11474;50.790;0.298;2023-03-01T04:37:35;53.72;;;35.20;;
22614;SDS011;11474;50.790;0.298;2023-03-01T04:40:02;52.17;;;35.40;;
22614;SDS011;11474;50.790;0.298;2023-03-01T04:42:40;51.33;;;35.67;;
22614;SDS011;11474;50.790;0.298;2023-03-01T04:45:07;55.30;;;35.78;;
22614;SDS011;11474;50.790;0.298;2023-03-01T04:47:47;57.45;;;36.70;;
22614;SDS011;11474;50.790;0.298;2023-03-01T04:50:14;55.10;;;36.22;;
22614;SDS011;11474;50.790;0.298;2023-03-01T04:52:40;53.83;;;35.67;;
22614;SDS011;11474;50.790;0.298;2023-03-01T04:55:07;50.60;;;36.05;;
22614;SDS011;11474;50.790;0.298;2023-03-01T04:57:33;50.85;;;35.88;;
22614;SDS011;11474;50.790;0.298;2023-03-01T04:59:59;49.92;;;35.00;;
22614;SDS011;11474;50.790;0.298;2023-03-01T05:02:25;55.08;;;36.35;;
22614;SDS011;11474;50.790;0.298;2023-03-01T05:04:51;52.25;;;36.15;;
22614;SDS011;11474;50.790;0.298;2023-03-01T05:07:22;53.47;;;34.60;;
22614;SDS011;11474;50.790;0.298;2023-03-01T05:09:49;53.90;;;35.63;;
22614;SDS011;11474;50.790;0.298;2023-03-01T05:12:15;53.70;;;35.10;;
22614;SDS011;11474;50.790;0.298;2023-03-01T05:14:42;55.22;;;35.63;;
22614;SDS011;11474;50.790;0.298;2023-03-01T05:17:08;55.15;;;36.33;;
22614;SDS011;11474;50.790;0.298;2023-03-01T05:19:34;51.78;;;35.03;;
22614;SDS011;11474;50.790;0.298;2023-03-01T05:22:00;49.40;;;33.80;;
22614;SDS011;11474;50.790;0.298;2023-03-01T05:24:29;55.30;;;35.65;;
22614;SDS011;11474;50.790;0.298;2023-03-01T05:26:56;52.05;;;34.63;;
22614;SDS011;11474;50.790;0.298;2023-03-01T05:29:22;55.80;;;35.10;;
22614;SDS011;11474;50.790;0.298;2023-03-01T05:31:55;54.83;;;35.72;;
22614;SDS011;11474;50.790;0.298;2023-03-01T05:34:27;57.58;;;36.17;;
22614;SDS011;11474;50.790;0.298;2023-03-01T05:36:53;55.00;;;34.80;;
22614;SDS011;11474;50.790;0.298;2023-03-01T05:39:20;54.35;;;35.22;;
22614;SDS011;11474;50.790;0.298;2023-03-01T05:41:47;50.50;;;33.03;;
22614;SDS011;11474;50.790;0.298;2023-03-01T05:44:13;53.40;;;34.90;;
22614;SDS011;11474;50.790;0.298;2023-03-01T05:46:41;52.33;;;34.25;;
22614;SDS011;11474;50.790;0.298;2023-03-01T05:49:07;52.60;;;34.67;;
22614;SDS011;11474;50.790;0.298;2023-03-01T05:51:33;60.70;;;35.63;;
22614;SDS011;11474;50.790;0.298;2023-03-01T05:53:59;55.90;;;35.83;;
22614;SDS011;11474;50.790;0.298;2023-03-01T05:56:25;52.33;;;35.25;;
22614;SDS011;11474;50.790;0.298;2023-03-01T05:58:51;50.92;;;33.85;;
22614;SDS011;11474;50.790;0.298;2023-03-01T06:01:17;54.90;;;35.15;;
22614;SDS011;11474;50.790;0.298;2023-03-01T06:03:43;52.90;;;33.47;;
22614;SDS011;11474;50.790;0.298;2023-03-01T06:06:09;52.13;;;32.42;;
22614;SDS011;11474;50.790;0.298;2023-03-01T06:08:38;50.08;;;31.55;;
22614;SDS011;11474;50.790;0.298;2023-03-01T06:11:04;48.42;;;32.33;;
22614;SDS011;11474;50.790;0.298;2023-03-01T06:13:32;48.03;;;30.27;;
22614;SDS011;11474;50.790;0.298;2023-03-01T06:15:58;46.63;;;29.75;;
22614;SDS011;11474;50.790;0.298;2023-03-01T06:18:24;44.47;;;29.02;;
22614;SDS011;11474;50.790;0.298;2023-03-01T06:20:53;51.40;;;29.85;;
22614;SDS011;11474;50.790;0.298;2023-03-01T06:23:19;46.97;;;29.40;;
22614;SDS011;11474;50.790;0.298;2023-03-01T06:25:46;46.78;;;28.98;;
22614;SDS011;11474;50.790;0.298;2023-03-01T06:28:12;45.23;;;28.10;;
22614;SDS011;11474;50.790;0.298;2023-03-01T06:30:38;42.80;;;28.15;;
22614;SDS011;11474;50.790;0.298;2023-03-01T06:33:04;47.00;;;29.15;;
22614;SDS011;11474;50.790;0.298;2023-03-01T06:35:30;46.88;;;28.05;;
22614;SDS011;11474;50.790;0.298;2023-03-01T06:37:56;45.57;;;28.73;;
22614;SDS011;11474;50.790;0.298;2023-03-01T06:40:23;45.78;;;28.60;;
22614;SDS011;11474;50.790;0.298;2023-03-01T06:42:49;43.58;;;27.90;;
22614;SDS011;11474;50.790;0.298;2023-03-01T06:45:16;45.83;;;27.70;;
22614;SDS011;11474;50.790;0.298;2023-03-01T06:47:43;42.85;;;27.63;;
22614;SDS011;11474;50.790;0.298;2023-03-01T06:50:09;41.22;;;27.05;;
22614;SDS011;11474;50.790;0.298;2023-03-01T06:52:35;41.38;;;25.35;;
22614;SDS011;11474;50.790;0.298;2023-03-01T06:55:02;40.47;;;25.85;;
22614;SDS011;11474;50.790;0.298;2023-03-01T06:57:28;39.38;;;25.60;;
22614;SDS011;11474;50.790;0.298;2023-03-01T06:59:54;43.10;;;25.40;;
22614;SDS011;11474;50.790;0.298;2023-03-01T07:02:21;44.72;;;26.50;;
22614;SDS011;11474;50.790;0.298;2023-03-01T07:04:48;42.22;;;25.58;;
22614;SDS011;11474;50.790;0.298;2023-03-01T07:07:15;43.85;;;27.88;;
22614;SDS011;11474;50.790;0.298;2023-03-01T07:09:42;45.55;;;27.48;;
22614;SDS011;11474;50.790;0.298;2023-03-01T07:12:08;43.85;;;27.17;;
22614;SDS011;11474;50.790;0.298;2023-03-01T07:14:35;45.53;;;27.73;;
22614;SDS011;11474;50.790;0.298;2023-03-01T07:17:01;44.15;;;26.95;;
22614;SDS011;11474;50.790;0.298;2023-03-01T07:19:27;43.83;;;26.05;;
22614;SDS011;11474;50.790;0.298;2023-03-01T07:21:53;42.45;;;26.40;;
22614;SDS011;11474;50.790;0.298;2023-03-01T07:24:21;44.88;;;26.08;;
22614;SDS011;11474;50.790;0.298;2023-03-01T07:26:50;42.17;;;25.53;;
22614;SDS011;11474;50.790;0.298;2023-03-01T07:29:17;41.83;;;26.17;;
22614;SDS011;11474;50.790;0.298;2023-03-01T07:31:43;43.35;;;26.10;;
22614;SDS011;11474;50.790;0.298;2023-03-01T07:34:09;41.67;;;25.30;;
22614;SDS011;11474;50.790;0.298;2023-03-01T07:36:36;40.08;;;25.92;;
22614;SDS011;11474;50.790;0.298;2023-03-01T07:39:02;40.58;;;25.27;;
22614;SDS011;11474;50.790;0.298;2023-03-01T07:41:28;41.63;;;25.35;;
22614;SDS011;11474;50.790;0.298;2023-03-01T07:44:02;39.30;;;23.90;;
22614;SDS011;11474;50.790;0.298;2023-03-01T07:46:29;41.40;;;24.98;;
22614;SDS011;11474;50.790;0.298;2023-03-01T07:48:55;37.83;;;24.00;;
22614;SDS011;11474;50.790;0.298;2023-03-01T07:51:23;37.67;;;24.00;;
22614;SDS011;11474;50.790;0.298;2023-03-01T07:53:49;43.60;;;23.23;;
22614;SDS011;11474;50.790;0.298;2023-03-01T07:56:16;40.47;;;23.63;;
22614;SDS011;11474;50.790;0.298;2023-03-01T07:58:44;37.30;;;23.02;;
22614;SDS011;11474;50.790;0.298;2023-03-01T08:01:12;35.20;;;21.13;;
22614;SDS011;11474;50.790;0.298;2023-03-01T08:03:38;35.30;;;22.15;;
22614;SDS011;11474;50.790;0.298;2023-03-01T08:06:06;37.10;;;20.95;;
22614;SDS011;11474;50.790;0.298;2023-03-01T08:08:32;32.75;;;20.40;;
22614;SDS011;11474;50.790;0.298;2023-03-01T08:10:59;32.00;;;20.00;;
22614;SDS011;11474;50.790;0.298;2023-03-01T08:13:26;34.05;;;20.17;;
22614;SDS011;11474;50.790;0.298;2023-03-01T08:15:52;30.77;;;19.92;;
22614;SDS011;11474;50.790;0.298;2023-03-01T08:18:18;30.80;;;20.35;;
22614;SDS011;11474;50.790;0.298;2023-03-01T08:20:45;34.60;;;18.77;;
22614;SDS011;11474;50.790;0.298;2023-03-01T08:23:11;32.38;;;19.23;;
22614;SDS011;11474;50.790;0.298;2023-03-01T08:25:38;32.40;;;17.83;;
22614;SDS011;11474;50.790;0.298;2023-03-01T08:28:04;28.45;;;17.73;;
22614;SDS011;11474;50.790;0.298;2023-03-01T08:30:30;26.80;;;16.67;;
22614;SDS011;11474;50.790;0.298;2023-03-01T08:32:57;27.92;;;17.98;;
22614;SDS011;11474;50.790;0.298;2023-03-01T08:35:23;29.67;;;18.00;;
22614;SDS011;11474;50.790;0.298;2023-03-01T08:37:49;27.27;;;17.15;;
22614;SDS011;11474;50.790;0.298;2023-03-01T08:40:15;26.77;;;16.75;;
22614;SDS011;11474;50.790;0.298;2023-03-01T08:42:41;25.00;;;16.15;;
22614;SDS011;11474;50.790;0.298;2023-03-01T08:45:08;26.40;;;15.98;;
22614;SDS011;11474;50.790;0.298;2023-03-01T08:47:34;26.17;;;15.98;;
22614;SDS011;11474;50.790;0.298;2023-03-01T08:50:01;26.25;;;15.85;;
22614;SDS011;11474;50.790;0.298;2023-03-01T08:52:27;24.77;;;15.82;;
22614;SDS011;11474;50.790;0.298;2023-03-01T08:54:55;31.07;;;16.67;;
22614;SDS011;11474;50.790;0.298;2023-03-01T08:57:21;23.57;;;16.20;;
22614;SDS011;11474;50.790;0.298;2023-03-01T08:59:48;22.85;;;15.95;;
22614;SDS011;11474;50.790;0.298;2023-03-01T09:02:15;24.80;;;15.57;;
22614;SDS011;11474;50.790;0.298;2023-03-01T09:04:41;23.50;;;15.50;;
22614;SDS011;11474;50.790;0.298;2023-03-01T09:07:08;23.00;;;14.73;;
22614;SDS011;11474;50.790;0.298;2023-03-01T09:09:34;27.77;;;15.20;;
22614;SDS011;11474;50.790;0.298;2023-03-01T09:12:01;24.17;;;15.05;;
22614;SDS011;11474;50.790;0.298;2023-03-01T09:14:27;22.95;;;14.68;;
22614;SDS011;11474;50.790;0.298;2023-03-01T09:16:53;28.63;;;14.77;;
22614;SDS011;11474;50.790;0.298;2023-03-01T09:19:19;23.83;;;15.40;;
22614;SDS011;11474;50.790;0.298;2023-03-01T09:21:46;25.00;;;15.05;;
22614;SDS011;11474;50.790;0.298;2023-03-01T09:24:19;25.55;;;14.60;;
22614;SDS011;11474;50.790;0.298;2023-03-01T09:26:46;21.08;;;14.65;;
22614;SDS011;11474;50.790;0.298;2023-03-01T09:29:12;22.75;;;14.05;;
22614;SDS011;11474;50.790;0.298;2023-03-01T09:31:39;22.40;;;14.45;;
22614;SDS011;11474;50.790;0.298;2023-03-01T09:34:06;22.42;;;14.27;;
22614;SDS011;11474;50.790;0.298;2023-03-01T09:36:33;22.83;;;14.30;;
22614;SDS011;11474;50.790;0.298;2023-03-01T09:38:59;21.53;;;13.57;;
22614;SDS011;11474;50.790;0.298;2023-03-01T09:46:58;19.98;;;12.18;;
22614;SDS011;11474;50.790;0.298;2023-03-01T09:49:26;20.00;;;12.68;;
22614;SDS011;11474;50.790;0.298;2023-03-01T09:52:19;19.95;;;13.07;;
22614;SDS011;11474;50.790;0.298;2023-03-01T09:54:39;18.65;;;12.52;;
22614;SDS011;11474;50.790;0.298;2023-03-01T09:57:08;20.38;;;12.82;;
22614;SDS011;11474;50.790;0.298;2023-03-01T09:59:43;18.85;;;12.25;;
22614;SDS011;11474;50.790;0.298;2023-03-01T10:02:21;19.05;;;12.60;;
22614;SDS011;11474;50.790;0.298;2023-03-01T10:04:50;18.63;;;12.53;;
22614;SDS011;11474;50.790;0.298;2023-03-01T10:10:02;22.25;;;12.50;;
22614;SDS011;11474;50.790;0.298;2023-03-01T10:12:32;18.77;;;11.75;;
22614;SDS011;11474;50.790;0.298;2023-03-01T10:15:01;16.90;;;11.95;;
22614;SDS011;11474;50.790;0.298;2023-03-01T10:19:57;16.88;;;11.90;;
22614;SDS011;11474;50.790;0.298;2023-03-01T10:22:32;19.65;;;11.63;;
22614;SDS011;11474;50.790;0.298;2023-03-01T10:24:58;18.27;;;12.13;;
22614;SDS011;11474;50.790;0.298;2023-03-01T10:32:27;19.15;;;9.95;;
22614;SDS011;11474;50.790;0.298;2023-03-01T10:34:54;17.23;;;9.35;;
22614;SDS011;11474;50.790;0.298;2023-03-01T10:37:20;15.07;;;8.88;;
22614;SDS011;11474;50.790;0.298;2023-03-01T10:42:25;14.30;;;8.05;;
22614;SDS011;11474;50.790;0.298;2023-03-01T10:44:52;13.13;;;6.75;;
22614;SDS011;11474;50.790;0.298;2023-03-01T10:47:25;14.93;;;8.38;;
22614;SDS011;11474;50.790;0.298;2023-03-01T10:49:53;15.48;;;8.10;;
22614;SDS011;11474;50.790;0.298;2023-03-01T10:52:20;14.95;;;8.02;;
22614;SDS011;11474;50.790;0.298;2023-03-01T10:54:54;14.70;;;7.60;;
22614;SDS011;11474;50.790;0.298;2023-03-01T10:57:27;13.67;;;7.60;;
22614;SDS011;11474;50.790;0.298;2023-03-01T11:00:10;12.45;;;8.32;;
22614;SDS011;11474;50.790;0.298;2023-03-01T11:02:41;11.43;;;6.63;;
22614;SDS011;11474;50.790;0.298;2023-03-01T11:10:16;14.17;;;7.63;;
22614;SDS011;11474;50.790;0.298;2023-03-01T11:12:43;12.45;;;6.43;;
22614;SDS011;11474;50.790;0.298;2023-03-01T11:15:19;12.00;;;6.55;;
22614;SDS011;11474;50.790;0.298;2023-03-01T11:17:46;10.20;;;5.85;;
22614;SDS011;11474;50.790;0.298;2023-03-01T11:22:42;11.10;;;5.03;;
22614;SDS011;11474;50.790;0.298;2023-03-01T11:25:11;10.25;;;5.22;;
22614;SDS011;11474;50.790;0.298;2023-03-01T11:27:40;11.10;;;5.93;;
22614;SDS011;11474;50.790;0.298;2023-03-01T11:32:36;11.35;;;5.30;;
22614;SDS011;11474;50.790;0.298;2023-03-01T11:37:59;8.13;;;4.70;;
22614;SDS011;11474;50.790;0.298;2023-03-01T11:40:52;8.32;;;4.85;;
22614;SDS011;11474;50.790;0.298;2023-03-01T11:51:09;8.20;;;3.78;;
22614;SDS011;11474;50.790;0.298;2023-03-01T11:59:13;8.75;;;3.53;;
22614;SDS011;11474;50.790;0.298;2023-03-01T12:01:48;7.60;;;3.42;;
22614;SDS011;11474;50.790;0.298;2023-03-01T12:13:03;5.50;;;2.40;;
22614;SDS011;11474;50.790;0.298;2023-03-01T12:15:30;6.33;;;2.30;;
22614;SDS011;11474;50.790;0.298;2023-03-01T12:18:44;5.95;;;2.00;;
22614;SDS011;11474;50.790;0.298;2023-03-01T12:25:48;4.40;;;2.30;;
22614;SDS011;11474;50.790;0.298;2023-03-01T12:28:19;4.00;;;2.63;;
22614;SDS011;11474;50.790;0.298;2023-03-01T12:30:59;5.85;;;2.40;;
22614;SDS011;11474;50.790;0.298;2023-03-01T12:34:07;6.57;;;2.42;;
22614;SDS011;11474;50.790;0.298;2023-03-01T12:36:25;4.70;;;2.50;;
22614;SDS011;11474;50.790;0.298;2023-03-01T12:49:59;4.38;;;2.47;;
22614;SDS011;11474;50.790;0.298;2023-03-01T12:52:35;6.65;;;2.45;;
22614;SDS011;11474;50.790;0.298;2023-03-01T12:55:06;7.95;;;2.75;;
22614;SDS011;11474;50.790;0.298;2023-03-01T12:57:37;5.97;;;2.40;;
22614;SDS011;11474;50.790;0.298;2023-03-01T13:10:56;10.88;;;3.47;;
22614;SDS011;11474;50.790;0.298;2023-03-01T13:13:25;8.80;;;2.70;;
22614;SDS011;11474;50.790;0.298;2023-03-01T13:15:52;10.32;;;2.95;;
22614;SDS011;11474;50.790;0.298;2023-03-01T13:20:51;10.63;;;2.58;;
22614;SDS011;11474;50.790;0.298;2023-03-01T13:26:06;8.98;;;2.83;;
22614;SDS011;11474;50.790;0.298;2023-03-01T13:28:40;7.63;;;2.20;;
22614;SDS011;11474;50.790;0.298;2023-03-01T13:31:11;7.13;;;2.42;;
22614;SDS011;11474;50.790;0.298;2023-03-01T13:33:56;6.75;;;2.25;;
22614;SDS011;11474;50.790;0.298;2023-03-01T13:44:12;8.02;;;2.50;;
22614;SDS011;11474;50.790;0.298;2023-03-01T13:46:38;5.37;;;2.30;;
22614;SDS011;11474;50.790;0.298;2023-03-01T13:49:09;11.20;;;2.90;;
22614;SDS011;11474;50.790;0.298;2023-03-01T13:51:37;8.93;;;2.60;;
22614;SDS011;11474;50.790;0.298;2023-03-01T13:54:03;7.15;;;2.40;;
22614;SDS011;11474;50.790;0.298;2023-03-01T13:56:33;6.43;;;2.53;;
22614;SDS011;11474;50.790;0.298;2023-03-01T13:59:18;5.82;;;2.40;;
22614;SDS011;11474;50.790;0.298;2023-03-01T14:01:44;6.10;;;2.72;;
22614;SDS011;11474;50.790;0.298;2023-03-01T14:06:46;7.03;;;3.05;;
22614;SDS011;11474;50.790;0.298;2023-03-01T14:19:07;5.82;;;2.70;;
22614;SDS011;11474;50.790;0.298;2023-03-01T14:21:38;8.07;;;2.92;;
22614;SDS011;11474;50.790;0.298;2023-03-01T14:24:04;8.73;;;2.70;;
22614;SDS011;11474;50.790;0.298;2023-03-01T14:26:31;3.93;;;2.33;;
22614;SDS011;11474;50.790;0.298;2023-03-01T14:28:57;7.43;;;2.40;;
22614;SDS011;11474;50.790;0.298;2023-03-01T14:31:36;4.22;;;2.28;;
22614;SDS011;11474;50.790;0.298;2023-03-01T14:34:03;7.30;;;2.67;;
22614;SDS011;11474;50.790;0.298;2023-03-01T14:36:30;3.42;;;2.38;;
22614;SDS011;11474;50.790;0.298;2023-03-01T14:38:57;7.70;;;2.53;;
22614;SDS011;11474;50.790;0.298;2023-03-01T14:41:31;5.10;;;2.22;;
22614;SDS011;11474;50.790;0.298;2023-03-01T14:43:59;5.47;;;2.50;;
22614;SDS011;11474;50.790;0.298;2023-03-01T14:46:29;4.20;;;2.10;;
22614;SDS011;11474;50.790;0.298;2023-03-01T14:48:58;4.30;;;2.20;;
22614;SDS011;11474;50.790;0.298;2023-03-01T14:51:27;5.60;;;2.47;;
22614;SDS011;11474;50.790;0.298;2023-03-01T14:53:53;6.68;;;3.10;;
22614;SDS011;11474;50.790;0.298;2023-03-01T14:56:19;5.15;;;2.20;;
22614;SDS011;11474;50.790;0.298;2023-03-01T14:58:46;4.50;;;2.17;;
22614;SDS011;11474;50.790;0.298;2023-03-01T15:01:16;5.38;;;2.33;;
22614;SDS011;11474;50.790;0.298;2023-03-01T15:03:43;5.18;;;2.25;;
22614;SDS011;11474;50.790;0.298;2023-03-01T15:06:10;5.40;;;2.15;;
22614;SDS011;11474;50.790;0.298;2023-03-01T15:08:41;4.55;;;2.60;;
22614;SDS011;11474;50.790;0.298;2023-03-01T15:13:43;8.27;;;2.28;;
22614;SDS011;11474;50.790;0.298;2023-03-01T15:16:30;5.60;;;1.90;;
22614;SDS011;11474;50.790;0.298;2023-03-01T15:19:00;4.53;;;1.80;;
22614;SDS011;11474;50.790;0.298;2023-03-01T15:21:32;4.88;;;2.00;;
22614;SDS011;11474;50.790;0.298;2023-03-01T15:24:15;5.00;;;1.75;;
22614;SDS011;11474;50.790;0.298;2023-03-01T15:26:45;5.65;;;1.90;;
22614;SDS011;11474;50.790;0.298;2023-03-01T15:29:19;5.53;;;2.40;;
22614;SDS011;11474;50.790;0.298;2023-03-01T15:32:03;5.32;;;2.00;;
22614;SDS011;11474;50.790;0.298;2023-03-01T15:34:34;3.70;;;2.08;;
22614;SDS011;11474;50.790;0.298;2023-03-01T15:37:02;5.80;;;2.00;;
22614;SDS011;11474;50.790;0.298;2023-03-01T15:39:40;6.40;;;2.40;;
22614;SDS011;11474;50.790;0.298;2023-03-01T15:44:38;5.70;;;2.33;;
22614;SDS011;11474;50.790;0.298;2023-03-01T15:47:26;4.82;;;1.98;;
22614;SDS011;11474;50.790;0.298;2023-03-01T15:49:53;6.68;;;2.20;;
22614;SDS011;11474;50.790;0.298;2023-03-01T15:54:54;5.15;;;1.95;;
22614;SDS011;11474;50.790;0.298;2023-03-01T15:57:20;5.55;;;2.10;;
22614;SDS011;11474;50.790;0.298;2023-03-01T15:59:46;7.53;;;2.13;;
22614;SDS011;11474;50.790;0.298;2023-03-01T16:02:14;3.70;;;1.65;;
22614;SDS011;11474;50.790;0.298;2023-03-01T16:04:40;5.65;;;1.90;;
22614;SDS011;11474;50.790;0.298;2023-03-01T16:07:08;5.72;;;1.98;;
22614;SDS011;11474;50.790;0.298;2023-03-01T16:09:35;5.57;;;2.20;;
22614;SDS011;11474;50.790;0.298;2023-03-01T16:12:01;5.82;;;2.00;;
22614;SDS011;11474;50.790;0.298;2023-03-01T16:14:27;4.47;;;1.67;;
22614;SDS011;11474;50.790;0.298;2023-03-01T16:16:53;6.23;;;1.83;;
22614;SDS011;11474;50.790;0.298;2023-03-01T16:19:19;3.97;;;1.95;;
22614;SDS011;11474;50.790;0.298;2023-03-01T16:21:45;5.80;;;2.10;;
22614;SDS011;11474;50.790;0.298;2023-03-01T16:24:13;5.78;;;2.40;;
22614;SDS011;11474;50.790;0.298;2023-03-01T16:26:39;4.05;;;1.98;;
22614;SDS011;11474;50.790;0.298;2023-03-01T16:29:07;7.60;;;2.47;;
22614;SDS011;11474;50.790;0.298;2023-03-01T16:31:33;5.73;;;2.20;;
22614;SDS011;11474;50.790;0.298;2023-03-01T16:33:59;5.25;;;2.42;;
22614;SDS011;11474;50.790;0.298;2023-03-01T16:36:26;5.68;;;2.20;;
22614;SDS011;11474;50.790;0.298;2023-03-01T16:38:57;6.20;;;2.40;;